Time;durP1;ratioP1;P1;durP2;ratioP2;P2;SDS_P1;SDS_P2;PMS_P1;PMS_P2;Temp;Humidity;BMP_temperature;BMP_pressure;BME280_temperature;BME280_humidity;BME280_pressure;Samples;Min_cycle;Max_cycle;Signal;HPM_P1;HPM_P2
2021/04/30 08:53:34;;;;;;;15.07;1.80;;;7.50;94.70;;;;;;6275185;23;20095;-89
2021/04/30 08:56:04;;;;;;;6.85;1.60;;;7.50;94.70;;;;;;6260363;23;20007;-91
2021/04/30 08:58:33;;;;;;;8.52;1.88;;;7.40;94.70;;;;;;6240281;23;20016;-89
2021/04/30 09:01:00;;;;;;;7.25;1.63;;;7.40;94.50;;;;;;6244449;23;20004;-91
2021/04/30 09:03:27;;;;;;;5.70;1.65;;;7.40;94.40;;;;;;6238311;23;20008;-91
2021/04/30 09:05:57;;;;;;;5.72;1.60;;;7.70;94.20;;;;;;6238300;23;20000;-90
2021/04/30 09:08:27;;;;;;;7.15;1.95;;;7.80;93.90;;;;;;6264399;23;20011;-89
2021/04/30 09:10:56;;;;;;;5.22;1.90;;;7.80;93.40;;;;;;6239244;23;20042;-89
2021/04/30 09:13:28;;;;;;;3.08;2.22;;;7.80;93.00;;;;;;6262738;23;20008;-90
2021/04/30 09:16:07;;;;;;;6.30;2.78;;;7.90;92.70;;;;;;6268279;23;20495;-89
2021/04/30 09:18:33;;;;;;;5.13;2.38;;;7.90;92.50;;;;;;6247280;23;20012;-89
2021/04/30 09:21:12;;;;;;;7.93;2.42;;;8.00;92.30;;;;;;6274500;23;20039;-89
2021/04/30 09:23:43;;;;;;;8.18;2.25;;;8.10;92.20;;;;;;6264748;23;20000;-89
2021/04/30 09:26:23;;;;;;;;;;;8.20;92.00;;;;;;6235424;23;20431;-90
2021/04/30 09:29:01;;;;;;;5.85;1.73;;;8.20;91.70;;;;;;6233716;23;19906;-90
2021/04/30 09:31:38;;;;;;;7.72;2.30;;;8.20;91.50;;;;;;6234336;23;20031;-90
2021/04/30 09:34:25;;;;;;;5.95;2.08;;;8.20;91.30;;;;;;6234875;23;20338;-91
2021/04/30 09:37:05;;;;;;;5.50;1.88;;;8.10;91.10;;;;;;6239263;23;20008;-90
2021/04/30 09:39:53;;;;;;;5.35;2.42;;;8.10;91.00;;;;;;6234376;23;20008;-90
2021/04/30 09:42:21;;;;;;;3.25;1.80;;;8.10;90.90;;;;;;6235701;23;20007;-90
2021/04/30 09:44:50;;;;;;;6.00;2.15;;;8.20;91.00;;;;;;6234942;23;20090;-90
2021/04/30 09:47:24;;;;;;;5.03;1.55;;;8.20;90.80;;;;;;6262677;23;20004;-90
2021/04/30 09:49:56;;;;;;;5.00;1.90;;;8.20;90.50;;;;;;6233116;23;20000;-90
2021/04/30 09:52:25;;;;;;;5.20;1.98;;;8.20;90.20;;;;;;6229683;23;20043;-89
2021/04/30 09:54:53;;;;;;;4.30;2.42;;;8.30;89.80;;;;;;6227782;23;20003;-91
2021/04/30 09:57:27;;;;;;;3.20;1.60;;;8.30;89.00;;;;;;6252978;23;20000;-91
2021/04/30 09:59:54;;;;;;;4.50;2.17;;;8.40;88.40;;;;;;6225934;23;20012;-89
2021/04/30 10:02:25;;;;;;;6.57;2.10;;;8.40;87.90;;;;;;6226297;23;20008;-90
2021/04/30 10:04:54;;;;;;;;;;;8.50;87.30;;;;;;6227939;23;20458;-91
2021/04/30 10:07:37;;;;;;;2.47;1.73;;;8.60;86.80;;;;;;6226559;23;19899;-90
2021/04/30 10:10:22;;;;;;;6.13;1.70;;;8.70;86.50;;;;;;6252362;23;20026;-90
2021/04/30 10:12:58;;;;;;;3.22;1.65;;;8.80;85.10;;;;;;6252673;23;20039;-90
2021/04/30 10:15:24;;;;;;;5.55;2.00;;;8.80;83.70;;;;;;6225012;23;20037;-89
2021/04/30 10:18:01;;;;;;;3.45;1.63;;;8.90;83.00;;;;;;6223360;23;20024;-90
2021/04/30 10:20:35;;;;;;;6.18;1.80;;;9.00;82.60;;;;;;6224188;23;20015;-90
2021/04/30 10:23:06;;;;;;;5.88;2.00;;;9.20;82.20;;;;;;6251808;23;20000;-90
2021/04/30 10:25:33;;;;;;;6.75;2.25;;;9.20;80.80;;;;;;6225767;23;20027;-91
2021/04/30 10:28:06;;;;;;;5.13;1.52;;;9.30;80.00;;;;;;6225768;23;20008;-91
2021/04/30 10:30:59;;;;;;;6.47;2.42;;;9.40;79.30;;;;;;6252896;23;20048;-91
2021/04/30 10:33:37;;;;;;;3.17;1.88;;;9.40;78.70;;;;;;6224812;23;20012;-90
2021/04/30 10:36:22;;;;;;;4.60;2.10;;;9.40;78.90;;;;;;6225148;23;20015;-90
2021/04/30 10:38:55;;;;;;;3.50;1.98;;;9.40;78.80;;;;;;6224921;23;20015;-90
2021/04/30 10:41:32;;;;;;;6.20;2.20;;;9.40;78.70;;;;;;6227056;22;20438;-91
2021/04/30 10:44:14;;;;;;;4.00;1.92;;;9.30;78.60;;;;;;6228764;23;20083;-91
2021/04/30 10:46:45;;;;;;;5.55;1.92;;;9.40;78.50;;;;;;6229295;23;20015;-92
2021/04/30 10:49:19;;;;;;;5.13;1.70;;;9.40;78.10;;;;;;6230322;23;20000;-91
2021/04/30 10:52:21;;;;;;;4.03;1.73;;;9.50;77.80;;;;;;6229552;23;20028;-90
2021/04/30 10:55:04;;;;;;;4.45;1.98;;;9.50;77.20;;;;;;6230338;23;19996;-89
2021/04/30 10:58:00;;;;;;;5.55;1.65;;;9.60;76.80;;;;;;6241625;23;20008;-91
2021/04/30 11:00:39;;;;;;;3.10;2.03;;;9.70;76.10;;;;;;6235479;23;20012;-89
2021/04/30 11:03:37;;;;;;;4.43;1.90;;;9.70;76.20;;;;;;6268296;22;20024;-90
2021/04/30 11:06:04;;;;;;;3.00;1.80;;;9.70;75.10;;;;;;6239958;23;20004;-90
2021/04/30 11:09:00;;;;;;;4.68;2.22;;;9.70;74.60;;;;;;6235243;23;20068;-91
2021/04/30 11:11:53;;;;;;;2.45;1.90;;;9.60;74.10;;;;;;6236941;23;20036;-89
2021/04/30 11:14:28;;;;;;;4.75;2.00;;;9.70;74.20;;;;;;6237213;23;20004;-89
2021/04/30 11:16:56;;;;;;;8.05;2.33;;;10.00;74.00;;;;;;6237517;23;20087;-89
2021/04/30 11:19:28;;;;;;;3.33;1.90;;;10.30;73.50;;;;;;6235995;23;20111;-90
2021/04/30 11:22:11;;;;;;;6.25;2.20;;;10.80;72.60;;;;;;6261414;23;19996;-92
2021/04/30 11:24:45;;;;;;;5.32;2.10;;;11.20;71.20;;;;;;6259749;23;20007;-91
2021/04/30 11:27:32;;;;;;;3.88;2.17;;;11.70;70.10;;;;;;6233930;23;20030;-91
2021/04/30 11:30:19;;;;;;;4.35;1.83;;;12.20;67.80;;;;;;6233628;23;20015;-91
2021/04/30 11:32:57;;;;;;;3.97;2.58;;;12.70;66.40;;;;;;6261511;23;20028;-92
2021/04/30 11:35:36;;;;;;;3.97;2.20;;;12.90;65.50;;;;;;6260871;23;20000;-90
2021/04/30 11:38:16;;;;;;;4.28;2.00;;;13.00;65.00;;;;;;6234157;23;20155;-91
2021/04/30 11:41:10;;;;;;;7.22;2.22;;;13.00;64.50;;;;;;6233057;23;20012;-91
2021/04/30 11:43:39;;;;;;;5.85;2.17;;;12.80;63.40;;;;;;6228570;23;20004;-90
2021/04/30 11:46:08;;;;;;;3.40;2.28;;;12.60;63.50;;;;;;6230036;23;20008;-90
2021/04/30 11:48:35;;;;;;;5.40;2.28;;;12.40;63.90;;;;;;6228953;23;20012;-92
2021/04/30 11:51:13;;;;;;;5.82;2.38;;;12.30;64.10;;;;;;6228114;23;20027;-91
2021/04/30 11:53:54;;;;;;;5.78;1.88;;;12.20;64.20;;;;;;6255529;23;20019;-90
2021/04/30 11:56:21;;;;;;;4.05;2.10;;;12.10;64.00;;;;;;6228747;23;20022;-91
2021/04/30 11:58:50;;;;;;;4.68;2.03;;;12.00;63.10;;;;;;6255719;23;20012;-90
2021/04/30 12:01:15;;;;;;;3.40;2.10;;;11.90;63.30;;;;;;6229951;23;20602;-90
2021/04/30 12:03:43;;;;;;;3.78;1.77;;;12.00;63.30;;;;;;6230106;23;20084;-92
2021/04/30 12:06:14;;;;;;;6.57;2.00;;;11.90;62.90;;;;;;6230045;23;20009;-91
2021/04/30 12:08:42;;;;;;;4.13;2.15;;;11.90;62.70;;;;;;6232060;23;20011;-91
2021/04/30 12:11:12;;;;;;;8.23;2.63;;;11.90;62.90;;;;;;6232929;23;20004;-90
2021/04/30 12:13:41;;;;;;;4.45;2.10;;;11.80;62.50;;;;;;6228909;23;20004;-90
2021/04/30 12:16:27;;;;;;;4.25;2.00;;;11.70;62.50;;;;;;6255626;23;20009;-91
2021/04/30 12:18:55;;;;;;;7.75;2.40;;;11.70;62.80;;;;;;6232390;23;20439;-90
2021/04/30 12:21:26;;;;;;;6.45;2.05;;;11.70;63.00;;;;;;6232738;23;20022;-91
2021/04/30 12:23:58;;;;;;;4.38;2.35;;;11.80;62.80;;;;;;6227510;23;20008;-91
2021/04/30 12:26:36;;;;;;;3.70;2.05;;;11.80;62.60;;;;;;6229017;23;20012;-91
2021/04/30 12:29:07;;;;;;;3.90;2.10;;;11.80;62.40;;;;;;6226124;23;20018;-91
2021/04/30 12:31:34;;;;;;;;;;;11.90;62.10;;;;;;6225224;23;20020;-91
2021/04/30 12:34:01;;;;;;;4.10;2.22;;;12.00;61.90;;;;;;6226698;23;19899;-90
2021/04/30 12:36:30;;;;;;;4.43;2.40;;;12.00;61.80;;;;;;6226527;23;20013;-89
2021/04/30 12:39:11;;;;;;;3.73;2.10;;;12.10;61.90;;;;;;6248186;23;20011;-89
2021/04/30 12:41:43;;;;;;;4.32;2.03;;;12.20;62.10;;;;;;6224316;22;20255;-90
2021/04/30 12:44:11;;;;;;;3.67;2.20;;;12.40;61.80;;;;;;6227464;23;20058;-90
2021/04/30 12:46:41;;;;;;;3.65;2.20;;;12.40;61.10;;;;;;6226587;23;20027;-89
2021/04/30 12:49:14;;;;;;;3.58;1.83;;;12.40;60.40;;;;;;6225556;23;20011;-89
2021/04/30 12:51:55;;;;;;;2.38;2.13;;;12.40;60.10;;;;;;6226616;23;20062;-91
2021/04/30 12:54:29;;;;;;;3.58;2.30;;;12.30;59.60;;;;;;6226897;23;20079;-91
2021/04/30 12:56:55;;;;;;;2.42;2.00;;;12.30;59.50;;;;;;6228341;23;20012;-90
2021/04/30 12:59:26;;;;;;;4.95;3.00;;;12.20;59.40;;;;;;6227282;23;20012;-89
2021/04/30 13:01:53;;;;;;;3.13;2.80;;;12.10;59.50;;;;;;6254054;23;19996;-91
2021/04/30 13:04:24;;;;;;;4.88;3.03;;;12.00;59.60;;;;;;6227470;23;20091;-89
2021/04/30 13:06:54;;;;;;;3.95;3.28;;;11.90;59.90;;;;;;6255013;23;20004;-90
2021/04/30 13:09:24;;;;;;;6.40;3.00;;;11.90;60.30;;;;;;6227386;23;20008;-90
2021/04/30 13:12:01;;;;;;;;;;;11.90;60.90;;;;;;6224981;23;20016;-91
2021/04/30 13:14:27;;;;;;;5.68;3.40;;;11.90;61.20;;;;;;6224506;23;19974;-91
2021/04/30 13:16:54;;;;;;;4.22;2.90;;;11.80;61.20;;;;;;6254694;23;20007;-89
2021/04/30 13:19:28;;;;;;;5.20;3.03;;;11.70;61.50;;;;;;6225983;23;20068;-90
2021/04/30 13:21:57;;;;;;;4.47;3.00;;;11.70;61.90;;;;;;6225977;23;20027;-93
2021/04/30 13:24:49;;;;;;;4.72;2.58;;;11.60;62.50;;;;;;6250885;23;20008;-91
2021/04/30 13:27:28;;;;;;;5.13;2.78;;;11.60;62.90;;;;;;6228053;23;20004;-91
2021/04/30 13:29:58;;;;;;;4.85;2.58;;;11.60;63.00;;;;;;6227229;23;20005;-91
2021/04/30 13:32:31;;;;;;;2.80;2.38;;;11.60;63.00;;;;;;6229371;22;20064;-92
2021/04/30 13:35:04;;;;;;;5.95;2.72;;;11.50;62.90;;;;;;6253266;22;20011;-91
2021/04/30 13:37:52;;;;;;;5.07;2.28;;;11.50;62.90;;;;;;6227784;23;19996;-91
2021/04/30 13:40:20;;;;;;;5.70;2.80;;;11.50;63.00;;;;;;6228319;23;20020;-92
2021/04/30 13:42:47;;;;;;;3.60;2.63;;;11.50;63.10;;;;;;6229026;23;20012;-92
2021/04/30 13:45:15;;;;;;;3.53;2.13;;;11.40;63.00;;;;;;6256420;23;20508;-92
2021/04/30 13:48:15;;;;;;;6.13;2.40;;;11.40;63.30;;;;;;6229536;23;20004;-92
2021/04/30 13:50:45;;;;;;;3.60;2.35;;;11.30;62.90;;;;;;6228498;23;20558;-92
2021/04/30 13:53:11;;;;;;;2.30;2.10;;;11.30;63.40;;;;;;6229588;23;20015;-92
2021/04/30 13:56:18;;;;;;;3.22;2.40;;;11.20;62.90;;;;;;6228880;23;20011;-92
2021/04/30 13:59:02;;;;;;;7.45;3.03;;;11.20;62.80;;;;;;6256121;22;20008;-92
2021/04/30 14:01:58;;;;;;;;;;;;;;;;;;;;;
2021/04/30 14:04:26;;;;;;;5.18;2.60;;;11.20;62.50;;;;;;6252804;23;20034;-91
2021/04/30 14:06:55;;;;;;;9.20;3.92;;;11.20;63.20;;;;;;6231070;23;20015;-92
2021/04/30 14:09:24;;;;;;;5.72;4.05;;;11.20;64.80;;;;;;6228722;23;20027;-91
2021/04/30 14:11:50;;;;;;;5.93;3.83;;;11.20;66.20;;;;;;6228616;23;20015;-93
2021/04/30 14:17:38;;;;;;;6.63;4.40;;;11.40;68.20;;;;;;6228593;23;20332;-92
2021/04/30 14:20:08;;;;;;;5.55;4.38;;;11.60;68.50;;;;;;6226059;23;20016;-91
2021/04/30 14:25:25;;;;;;;6.65;3.83;;;11.70;69.40;;;;;;6258416;22;20354;-92
2021/04/30 14:27:52;;;;;;;7.43;3.42;;;11.90;69.50;;;;;;6282269;22;20007;-91
2021/04/30 14:30:19;;;;;;;5.80;4.00;;;12.20;69.60;;;;;;6258211;22;20438;-91
2021/04/30 14:32:48;;;;;;;5.20;3.63;;;12.60;69.40;;;;;;6257360;22;20007;-92
2021/04/30 14:35:18;;;;;;;5.75;3.42;;;12.90;68.90;;;;;;6257979;22;20039;-92
2021/04/30 14:37:49;;;;;;;6.50;3.25;;;13.00;68.20;;;;;;6283410;22;20003;-92
2021/04/30 14:40:39;;;;;;;8.30;3.70;;;13.10;67.90;;;;;;6257615;22;20015;-92
2021/04/30 14:43:05;;;;;;;6.33;3.20;;;13.30;67.70;;;;;;6258177;22;20059;-93
2021/04/30 14:45:56;;;;;;;;;;;;;;;;;;;;;
2021/04/30 14:48:23;;;;;;;5.05;3.30;;;13.80;66.70;;;;;;6290545;22;20000;-91
2021/04/30 14:51:15;;;;;;;8.25;4.05;;;14.00;66.00;;;;;;6295850;22;20155;-91
2021/04/30 14:53:41;;;;;;;7.25;3.58;;;14.30;65.10;;;;;;6247110;22;20011;-92
2021/04/30 14:56:06;;;;;;;5.38;3.30;;;14.60;64.40;;;;;;6266487;22;20027;-91
2021/04/30 14:58:32;;;;;;;7.55;3.85;;;14.80;63.70;;;;;;6263630;22;20010;-90
2021/04/30 15:01:05;;;;;;;5.88;3.92;;;15.00;63.50;;;;;;6259844;22;20011;-89
2021/04/30 15:03:33;;;;;;;3.63;3.22;;;15.00;63.10;;;;;;6261129;22;20007;-89
2021/04/30 15:05:59;;;;;;;8.77;3.13;;;15.30;62.60;;;;;;6263373;22;20013;-92
2021/04/30 15:08:27;;;;;;;2.95;2.47;;;15.50;61.90;;;;;;6261756;22;20008;-92
2021/04/30 15:10:56;;;;;;;4.55;3.33;;;15.40;61.40;;;;;;6262345;22;20003;-92
2021/04/30 15:13:24;;;;;;;4.28;3.08;;;15.50;61.40;;;;;;6289909;22;20042;-91
2021/04/30 15:15:53;;;;;;;3.67;2.92;;;15.50;61.00;;;;;;6263670;22;20014;-92
2021/04/30 15:18:21;;;;;;;7.47;3.00;;;15.70;60.70;;;;;;6238997;22;20011;-92
2021/04/30 15:20:56;;;;;;;5.70;3.30;;;15.70;60.00;;;;;;6260601;22;20004;-92
2021/04/30 15:23:23;;;;;;;4.93;2.78;;;15.50;59.70;;;;;;6258587;22;20003;-93
2021/04/30 15:25:50;;;;;;;5.15;2.90;;;15.40;59.90;;;;;;6260243;22;20352;-95
2021/04/30 15:28:20;;;;;;;5.53;2.83;;;15.30;59.90;;;;;;6288442;22;20014;-93
2021/04/30 15:30:46;;;;;;;4.35;2.70;;;15.10;60.30;;;;;;6263547;22;20004;-93
2021/04/30 15:33:14;;;;;;;4.05;2.38;;;15.00;60.50;;;;;;6287664;22;20255;-92
2021/04/30 15:35:40;;;;;;;3.55;2.60;;;14.80;60.40;;;;;;6260889;22;20012;-92
2021/04/30 15:38:06;;;;;;;3.90;2.60;;;14.50;60.40;;;;;;6258867;22;20023;-92
2021/04/30 15:40:32;;;;;;;4.43;3.15;;;14.20;61.10;;;;;;6259455;22;20075;-93
2021/04/30 15:42:59;;;;;;;3.13;2.35;;;14.20;61.60;;;;;;6288997;22;20002;-92
2021/04/30 15:45:25;;;;;;;3.08;2.33;;;14.20;61.80;;;;;;6261519;22;20008;-92
2021/04/30 15:47:54;;;;;;;3.95;2.78;;;14.20;61.80;;;;;;6261362;22;20394;-92
2021/04/30 15:50:25;;;;;;;3.00;2.50;;;14.20;61.80;;;;;;6255558;22;20004;-92
2021/04/30 15:52:51;;;;;;;5.93;2.60;;;14.10;61.80;;;;;;6259976;22;20015;-92
2021/04/30 15:55:19;;;;;;;3.95;2.80;;;14.00;62.00;;;;;;6262636;22;20004;-93
2021/04/30 15:57:45;;;;;;;4.50;2.53;;;13.90;62.20;;;;;;6286295;22;20007;-92
2021/04/30 16:00:13;;;;;;;2.55;2.25;;;13.80;62.30;;;;;;6259619;22;20012;-93
2021/04/30 16:03:08;;;;;;;3.28;2.22;;;13.80;62.50;;;;;;6260702;22;20006;-93
2021/04/30 16:05:59;;;;;;;3.70;2.50;;;13.70;62.70;;;;;;6288312;22;20490;-93
2021/04/30 16:08:28;;;;;;;2.92;2.28;;;13.50;62.90;;;;;;6262059;22;20084;-94
2021/04/30 16:10:56;;;;;;;2.60;2.40;;;13.40;63.30;;;;;;6264793;22;20030;-91
2021/04/30 16:13:26;;;;;;;2.78;2.42;;;13.40;63.70;;;;;;6264592;22;20000;-92
2021/04/30 16:15:58;;;;;;;4.18;2.30;;;13.40;63.90;;;;;;6269848;22;20002;-94
2021/04/30 16:18:25;;;;;;;3.17;2.47;;;13.40;63.90;;;;;;6269902;22;20000;-93
2021/04/30 16:20:54;;;;;;;3.58;1.90;;;13.40;63.70;;;;;;6276584;22;20012;-92
2021/04/30 16:23:26;;;;;;;2.30;1.90;;;13.40;63.60;;;;;;6303920;22;19984;-93
2021/04/30 16:25:54;;;;;;;3.00;2.20;;;13.40;63.60;;;;;;6302467;22;20019;-93
2021/04/30 16:28:31;;;;;;;2.30;1.80;;;13.50;63.40;;;;;;6303766;22;20043;-93
2021/04/30 16:30:59;;;;;;;2.05;1.75;;;13.60;62.40;;;;;;6253488;22;20015;-93
2021/04/30 16:33:27;;;;;;;4.45;1.98;;;13.60;61.50;;;;;;6302312;22;20004;-92
2021/04/30 16:35:54;;;;;;;3.00;1.80;;;13.70;61.40;;;;;;6298088;22;20000;-92
2021/04/30 16:38:21;;;;;;;4.57;1.90;;;13.80;61.00;;;;;;6267783;22;20008;-93
2021/04/30 16:40:47;;;;;;;2.97;1.65;;;13.80;60.40;;;;;;6268902;22;20007;-94
2021/04/30 16:43:13;;;;;;;2.47;1.98;;;13.80;60.30;;;;;;6266917;22;20019;-93
2021/04/30 16:45:40;;;;;;;4.60;2.03;;;13.90;60.10;;;;;;6266430;22;20014;-93
2021/04/30 16:48:16;;;;;;;3.15;1.80;;;14.00;59.90;;;;;;6293480;22;19996;-92
2021/04/30 16:51:03;;;;;;;2.67;2.13;;;14.20;59.60;;;;;;6293575;22;20008;-92
2021/04/30 16:53:34;;;;;;;1.83;1.70;;;14.30;59.20;;;;;;6292424;22;19999;-93
2021/04/30 16:56:00;;;;;;;3.28;2.20;;;14.30;59.10;;;;;;6289501;22;20003;-92
2021/04/30 16:58:26;;;;;;;6.43;2.13;;;14.30;58.90;;;;;;6292761;22;19996;-93
2021/04/30 17:00:52;;;;;;;2.00;1.60;;;14.40;58.60;;;;;;6292975;22;20007;-91
2021/04/30 17:03:20;;;;;;;2.13;1.52;;;14.50;58.50;;;;;;6265546;22;20029;-94
2021/04/30 17:05:52;;;;;;;2.28;2.00;;;14.50;58.50;;;;;;6267382;22;20014;-94
2021/04/30 17:08:21;;;;;;;2.80;1.70;;;14.60;58.30;;;;;;6292711;22;20051;-93
2021/04/30 17:10:48;;;;;;;3.38;1.83;;;14.60;58.10;;;;;;6265434;22;20004;-93
2021/04/30 17:13:15;;;;;;;2.80;2.20;;;14.60;58.00;;;;;;6292762;22;19996;-93
2021/04/30 17:15:41;;;;;;;3.08;1.88;;;14.50;57.90;;;;;;6290268;22;20080;-94
2021/04/30 17:18:06;;;;;;;2.08;1.42;;;14.50;57.90;;;;;;6266366;22;20011;-94
2021/04/30 17:20:32;;;;;;;3.80;2.17;;;14.40;57.90;;;;;;6241433;22;20016;-94
2021/04/30 17:22:59;;;;;;;2.58;2.08;;;14.30;57.70;;;;;;6268082;22;20004;-94
2021/04/30 17:25:28;;;;;;;3.17;2.17;;;14.30;57.90;;;;;;6243475;22;20346;-93
2021/04/30 17:27:56;;;;;;;4.93;3.08;;;14.10;58.00;;;;;;6293592;22;20011;-93
2021/04/30 17:30:23;;;;;;;5.65;2.92;;;14.00;58.30;;;;;;6263838;22;20004;-94
2021/04/30 17:32:52;;;;;;;3.92;2.03;;;13.90;58.50;;;;;;6289135;22;20347;-94
2021/04/30 17:35:20;;;;;;;3.10;2.42;;;13.80;58.70;;;;;;6262239;22;20003;-94
2021/04/30 17:37:46;;;;;;;3.13;2.30;;;13.80;59.00;;;;;;6237289;22;20012;-93
2021/04/30 17:40:13;;;;;;;3.10;2.40;;;13.60;59.20;;;;;;6289172;22;20015;-94
2021/04/30 17:42:43;;;;;;;4.35;2.67;;;13.50;59.60;;;;;;6264098;22;20035;-93
2021/04/30 17:45:13;;;;;;;11.57;2.88;;;13.40;59.90;;;;;;6263622;22;20026;-94
2021/04/30 17:47:42;;;;;;;4.15;2.75;;;13.30;60.30;;;;;;6264875;22;20000;-93
2021/04/30 17:50:09;;;;;;;4.45;2.80;;;13.20;60.50;;;;;;6264689;22;20003;-93
2021/04/30 17:52:48;;;;;;;4.85;2.78;;;13.10;61.50;;;;;;6264365;22;20064;-93
2021/04/30 17:55:20;;;;;;;3.38;2.40;;;13.00;61.10;;;;;;6295052;22;20029;-94
2021/04/30 17:57:46;;;;;;;3.35;2.40;;;12.90;61.20;;;;;;6294945;22;20060;-94
2021/04/30 18:00:18;;;;;;;3.00;2.53;;;12.80;61.40;;;;;;6293058;22;20019;-91
2021/04/30 18:02:46;;;;;;;3.78;2.55;;;12.70;61.80;;;;;;6265104;22;20011;-92
2021/04/30 18:05:12;;;;;;;4.47;2.63;;;12.60;62.10;;;;;;6262855;22;20067;-93
2021/04/30 18:07:39;;;;;;;3.53;2.30;;;12.60;62.40;;;;;;6235118;22;20012;-92
2021/04/30 18:10:08;;;;;;;3.45;2.85;;;12.50;62.60;;;;;;6257150;22;20019;-93
2021/04/30 18:12:36;;;;;;;4.35;2.80;;;12.40;62.80;;;;;;6256049;22;20011;-92
2021/04/30 18:15:04;;;;;;;5.18;2.97;;;12.20;62.80;;;;;;6258601;22;20011;-92
2021/04/30 18:17:31;;;;;;;3.92;3.08;;;12.10;63.20;;;;;;6257312;22;20308;-92
2021/04/30 18:19:56;;;;;;;5.90;2.83;;;11.90;63.80;;;;;;6282761;22;20019;-90
2021/04/30 18:22:22;;;;;;;4.78;3.40;;;11.50;65.00;;;;;;6258123;22;20029;-91
2021/04/30 18:24:48;;;;;;;3.58;2.80;;;11.40;66.10;;;;;;6257366;22;20525;-92
2021/04/30 18:27:14;;;;;;;6.63;3.38;;;11.20;67.50;;;;;;6257981;22;20000;-91
2021/04/30 18:29:40;;;;;;;6.90;3.50;;;11.10;67.80;;;;;;6232128;22;20016;-91
2021/04/30 18:32:06;;;;;;;3.78;3.28;;;10.90;68.40;;;;;;6257254;22;20044;-94
2021/04/30 18:34:34;;;;;;;4.15;2.85;;;10.70;69.40;;;;;;6283429;22;20012;-93
2021/04/30 18:37:00;;;;;;;3.67;2.80;;;10.50;70.00;;;;;;6281277;22;20466;-94
2021/04/30 18:39:27;;;;;;;4.45;3.67;;;10.30;70.60;;;;;;6255918;22;20016;-95
2021/04/30 18:41:53;;;;;;;3.13;2.83;;;10.10;71.30;;;;;;6257738;22;20014;-92
2021/04/30 18:44:19;;;;;;;3.95;2.63;;;9.80;71.80;;;;;;6256124;22;20058;-92
2021/04/30 18:46:46;;;;;;;3.83;3.22;;;9.70;72.60;;;;;;6283338;22;20002;-92
2021/04/30 18:49:14;;;;;;;5.60;3.20;;;9.70;72.90;;;;;;6255631;22;20008;-91
2021/04/30 18:51:46;;;;;;;6.10;3.70;;;9.60;73.30;;;;;;6256117;22;20018;-91
2021/04/30 18:54:16;;;;;;;3.25;2.80;;;9.60;73.70;;;;;;6230081;22;20004;-92
2021/04/30 18:56:41;;;;;;;5.00;3.87;;;9.50;74.10;;;;;;6230631;22;20520;-92
2021/04/30 18:59:07;;;;;;;4.05;3.10;;;9.50;74.30;;;;;;6254769;22;20246;-91
2021/04/30 19:01:34;;;;;;;4.80;3.42;;;9.40;74.50;;;;;;6255046;22;20007;-92
2021/04/30 19:04:00;;;;;;;4.90;3.15;;;9.30;74.80;;;;;;6255411;22;20007;-92
2021/04/30 19:06:26;;;;;;;6.65;3.55;;;9.20;75.30;;;;;;6252920;22;20016;-92
2021/04/30 19:08:52;;;;;;;4.20;3.50;;;8.90;76.10;;;;;;6280538;22;20096;-93
2021/04/30 19:11:19;;;;;;;4.72;3.03;;;8.80;76.60;;;;;;6224381;23;20072;-93
2021/04/30 19:13:45;;;;;;;4.07;3.15;;;8.70;77.20;;;;;;6224145;23;20015;-93
2021/04/30 19:16:11;;;;;;;4.68;3.40;;;8.60;77.90;;;;;;6223244;23;20431;-93
2021/04/30 19:18:36;;;;;;;5.38;3.33;;;8.50;78.60;;;;;;6223126;23;20065;-93
2021/04/30 19:21:04;;;;;;;5.22;3.70;;;8.40;79.00;;;;;;6248158;23;20071;-93
2021/04/30 19:23:30;;;;;;;5.45;3.30;;;8.40;79.50;;;;;;6222963;23;20004;-92
2021/04/30 19:25:56;;;;;;;4.22;2.95;;;8.30;80.20;;;;;;6218348;23;20070;-92
2021/04/30 19:28:24;;;;;;;5.43;3.88;;;8.20;80.80;;;;;;6218954;23;20036;-92
2021/04/30 19:30:50;;;;;;;4.38;3.35;;;8.20;81.40;;;;;;6217757;23;20008;-92
2021/04/30 19:33:16;;;;;;;5.90;3.50;;;8.10;81.70;;;;;;6219735;23;20004;-93
2021/04/30 19:35:42;;;;;;;6.20;4.00;;;8.00;82.30;;;;;;6219670;23;20432;-93
2021/04/30 19:38:09;;;;;;;5.43;3.95;;;8.00;83.20;;;;;;6220135;23;20011;-93
2021/04/30 19:40:37;;;;;;;5.38;3.70;;;7.90;83.80;;;;;;6219418;23;20020;-92
2021/04/30 19:43:05;;;;;;;8.70;3.45;;;7.90;84.40;;;;;;6219923;23;20060;-92
2021/04/30 19:45:31;;;;;;;4.82;3.42;;;7.90;85.00;;;;;;6219422;23;20028;-94
2021/04/30 19:47:56;;;;;;;5.53;3.72;;;7.90;85.40;;;;;;6220325;23;20005;-93
2021/04/30 19:50:23;;;;;;;4.90;3.58;;;7.90;85.60;;;;;;6220361;23;20443;-92
2021/04/30 19:52:49;;;;;;;5.85;4.10;;;7.80;86.10;;;;;;6218598;23;20004;-93
2021/04/30 19:55:17;;;;;;;5.47;3.05;;;7.80;86.70;;;;;;6219242;23;20062;-92
2021/04/30 19:57:43;;;;;;;6.78;3.85;;;7.80;87.10;;;;;;6218181;23;20001;-92
2021/04/30 20:00:11;;;;;;;6.70;3.10;;;7.80;87.30;;;;;;6191619;23;20070;-92
2021/04/30 20:02:38;;;;;;;5.57;4.20;;;7.90;87.50;;;;;;6215508;23;20008;-92
2021/04/30 20:05:09;;;;;;;6.75;4.10;;;7.90;87.40;;;;;;6191905;23;20466;-93
2021/04/30 20:07:35;;;;;;;;;;;8.00;87.70;;;;;;6217133;23;20004;-92
2021/04/30 20:10:01;;;;;;;7.47;4.68;;;8.00;87.70;;;;;;6217495;23;19904;-92
2021/04/30 20:12:28;;;;;;;7.30;5.00;;;8.00;87.50;;;;;;6217482;23;20031;-91
2021/04/30 20:14:54;;;;;;;8.65;5.20;;;7.90;87.90;;;;;;6216895;23;20013;-92
2021/04/30 20:17:20;;;;;;;6.88;5.07;;;7.90;88.50;;;;;;6218769;23;20045;-92
2021/04/30 20:19:52;;;;;;;8.60;6.18;;;7.90;89.00;;;;;;6192301;23;20101;-92
2021/04/30 20:22:22;;;;;;;9.60;5.65;;;7.90;89.70;;;;;;6216531;23;20053;-92
2021/04/30 20:24:48;;;;;;;7.03;5.43;;;7.70;90.00;;;;;;6218046;23;20047;-92
2021/04/30 20:27:14;;;;;;;12.57;4.97;;;7.60;90.30;;;;;;6216952;23;20001;-93
2021/04/30 20:29:41;;;;;;;9.05;5.32;;;7.50;90.60;;;;;;6217638;23;20004;-94
2021/04/30 20:32:07;;;;;;;9.93;6.93;;;7.50;90.90;;;;;;6218007;23;20001;-93
2021/04/30 20:34:38;;;;;;;7.15;4.80;;;7.40;91.20;;;;;;6217537;23;20008;-92
2021/04/30 20:37:06;;;;;;;8.15;4.95;;;7.30;91.40;;;;;;6218487;23;20584;-93
2021/04/30 20:39:33;;;;;;;9.30;5.22;;;7.30;91.80;;;;;;6216113;23;20140;-93
2021/04/30 20:41:58;;;;;;;7.68;5.82;;;7.30;91.90;;;;;;6218804;23;20004;-93
2021/04/30 20:44:26;;;;;;;7.30;5.40;;;7.30;92.10;;;;;;6217175;23;20001;-93
2021/04/30 20:46:52;;;;;;;5.82;5.18;;;7.30;92.20;;;;;;6217454;23;20021;-93
2021/04/30 20:49:18;;;;;;;9.57;6.50;;;7.20;92.40;;;;;;6218549;23;20004;-93
2021/04/30 20:51:45;;;;;;;7.90;6.30;;;7.20;92.90;;;;;;6194843;23;20028;-94
2021/04/30 20:54:13;;;;;;;9.55;6.50;;;7.20;92.80;;;;;;6221772;23;20015;-94
2021/04/30 20:56:40;;;;;;;11.70;7.82;;;7.10;93.10;;;;;;6234295;23;20008;-93
2021/04/30 20:59:06;;;;;;;8.68;7.45;;;7.10;93.40;;;;;;6233885;23;20013;-94
2021/04/30 21:01:34;;;;;;;10.32;8.30;;;7.00;93.60;;;;;;6232959;23;19997;-93
2021/04/30 21:04:00;;;;;;;9.93;8.23;;;7.00;93.90;;;;;;6234700;23;20064;-93
2021/04/30 21:06:26;;;;;;;10.68;8.32;;;7.00;94.20;;;;;;6231267;23;20016;-92
2021/04/30 21:08:56;;;;;;;9.45;7.53;;;7.00;94.50;;;;;;6228085;23;20050;-94
2021/04/30 21:16:53;;;;;;;7.85;6.40;;;7.00;95.10;;;;;;6238215;23;20035;-93
2021/04/30 21:19:20;;;;;;;6.55;5.72;;;6.90;95.20;;;;;;6237221;23;20017;-93
2021/04/30 21:21:49;;;;;;;8.32;6.57;;;6.90;95.40;;;;;;6239169;23;20000;-92
2021/04/30 21:24:16;;;;;;;8.68;7.18;;;6.90;95.50;;;;;;6243027;22;20046;-92
2021/04/30 21:26:44;;;;;;;8.82;6.80;;;6.90;95.60;;;;;;6233806;23;20020;-93
2021/04/30 21:29:12;;;;;;;9.52;7.82;;;6.80;95.80;;;;;;6233618;23;20443;-93
2021/04/30 21:31:41;;;;;;;10.18;7.63;;;6.80;96.00;;;;;;6260932;23;20000;-93
2021/04/30 21:34:06;;;;;;;9.15;7.28;;;6.70;96.30;;;;;;6261384;23;20301;-94
2021/04/30 21:36:37;;;;;;;9.35;7.57;;;6.70;96.50;;;;;;6259948;23;20042;-93
2021/04/30 21:39:07;;;;;;;10.75;7.40;;;6.70;96.70;;;;;;6261183;23;20048;-94
2021/04/30 21:41:34;;;;;;;9.85;7.25;;;6.70;97.00;;;;;;6209144;23;20035;-92
2021/04/30 21:44:04;;;;;;;9.75;7.40;;;6.60;97.10;;;;;;6233962;23;20015;-93
2021/04/30 21:46:40;;;;;;;7.22;5.82;;;6.60;97.70;;;;;;6234945;23;20008;-92
2021/04/30 21:49:07;;;;;;;7.80;6.00;;;6.60;97.60;;;;;;6262224;23;20051;-92
2021/04/30 21:51:35;;;;;;;5.93;5.20;;;6.70;97.70;;;;;;6234768;23;20008;-93
2021/04/30 21:54:02;;;;;;;6.82;5.90;;;6.70;97.80;;;;;;6210242;23;20063;-93
2021/04/30 21:56:29;;;;;;;6.45;5.25;;;6.60;97.90;;;;;;6234503;23;20089;-93
2021/04/30 21:58:55;;;;;;;5.88;4.10;;;6.60;98.00;;;;;;6259504;23;20012;-93
2021/04/30 22:01:40;;;;;;;6.50;4.47;;;6.60;98.10;;;;;;6261086;23;20015;-93
2021/04/30 22:04:09;;;;;;;5.57;4.50;;;6.50;98.30;;;;;;6259742;23;19996;-92
2021/04/30 22:06:41;;;;;;;6.15;4.30;;;6.50;98.40;;;;;;6233912;23;20014;-93
2021/04/30 22:09:24;;;;;;;5.10;4.20;;;6.40;98.30;;;;;;6233056;23;20035;-93
2021/04/30 22:11:56;;;;;;;5.65;4.32;;;6.30;98.50;;;;;;6234212;23;20431;-93
2021/04/30 22:14:23;;;;;;;6.10;4.20;;;6.20;98.70;;;;;;6233531;23;20092;-92
2021/04/30 22:16:49;;;;;;;5.93;4.47;;;6.10;98.90;;;;;;6233173;23;20005;-93
2021/04/30 22:19:15;;;;;;;5.25;3.75;;;6.10;99.10;;;;;;6231745;23;20016;-92